Time;durP1;ratioP1;P1;durP2;ratioP2;P2;SDS_P1;SDS_P2;PMS_P1;PMS_P2;Temp;Humidity;BMP_temperature;BMP_pressure;BME280_temperature;BME280_humidity;BME280_pressure;Samples;Min_cycle;Max_cycle;Signal;HPM_P1;HPM_P2
2022/05/27 15:46:16;;;;;;;14.32;1.38;;;23.00;99.90;;;;;;4218528;27;20425;-55
2022/05/27 15:48:20;;;;;;;6.05;1.38;;;22.20;99.90;;;;;;4208521;28;20060;-55
2022/05/27 15:50:22;;;;;;;13.50;1.80;;;21.90;99.90;;;;;;4208447;28;20108;-56
2022/05/27 15:52:25;;;;;;;;;;;21.40;99.90;;;;;;4207729;28;20128;-56
2022/05/27 15:54:27;;;;;;;11.55;3.15;;;21.20;99.90;;;;;;4206779;28;19928;-55
2022/05/27 15:56:29;;;;;;;12.60;2.00;;;21.20;99.90;;;;;;4207639;28;20421;-54
2022/05/27 15:58:31;;;;;;;;;;;20.70;99.90;;;;;;4207549;28;20443;-53
2022/05/27 16:00:34;;;;;;;23.77;2.15;;;20.50;99.90;;;;;;4205841;28;19920;-53
2022/05/27 16:02:36;;;;;;;19.58;2.30;;;20.50;99.90;;;;;;4200384;28;20079;-52
2022/05/27 16:04:39;;;;;;;17.60;3.03;;;20.60;99.90;;;;;;4208133;28;20147;-54
2022/05/27 16:06:41;;;;;;;14.77;2.08;;;20.90;99.90;;;;;;4204766;28;20040;-51
2022/05/27 16:08:43;;;;;;;17.23;2.45;;;21.30;99.90;;;;;;4207289;28;20446;-53
2022/05/27 16:10:47;;;;;;;15.90;2.15;;;21.00;99.90;;;;;;4206578;28;20046;-52
2022/05/27 16:12:50;;;;;;;11.25;1.55;;;20.80;99.90;;;;;;4201620;28;20437;-52
2022/05/27 16:14:52;;;;;;;15.40;1.83;;;20.80;99.90;;;;;;4215430;28;20036;-52
2022/05/27 16:19:34;;;;;;;14.05;2.55;;;20.90;99.90;;;;;;4188879;28;20380;-51
2022/05/27 16:21:37;;;;;;;13.05;1.90;;;20.60;99.90;;;;;;4188508;28;20109;-51
2022/05/27 16:23:44;;;;;;;17.98;4.40;;;20.40;99.90;;;;;;4188857;28;20136;-50
2022/05/27 16:26:04;;;;;;;11.38;1.90;;;20.40;99.90;;;;;;4203495;28;20045;-51
2022/05/27 16:28:07;;;;;;;16.73;2.47;;;20.70;99.90;;;;;;4195806;28;20577;-51
2022/05/27 16:30:16;;;;;;;16.90;2.97;;;20.60;99.90;;;;;;4207756;28;20048;-49
2022/05/27 16:32:21;;;;;;;15.70;2.40;;;20.20;99.90;;;;;;4201043;28;20566;-51
2022/05/27 16:34:24;;;;;;;14.07;2.42;;;19.90;99.90;;;;;;4207391;28;20102;-49
2022/05/27 16:36:26;;;;;;;21.48;2.92;;;19.60;99.90;;;;;;4207648;28;20135;-50
2022/05/27 16:38:31;;;;;;;12.52;2.35;;;19.80;99.90;;;;;;4206717;28;20045;-49
2022/05/27 16:40:33;;;;;;;9.80;1.65;;;20.10;99.90;;;;;;4206641;28;20105;-50
2022/05/27 16:42:36;;;;;;;10.27;2.00;;;20.20;99.90;;;;;;4206601;28;20503;-50
2022/05/27 16:44:38;;;;;;;14.20;2.80;;;20.20;99.90;;;;;;4206903;28;20040;-51
2022/05/27 16:46:40;;;;;;;12.80;2.63;;;20.10;99.90;;;;;;4207231;28;20553;-49
2022/05/27 16:48:55;;;;;;;16.60;2.80;;;20.10;99.90;;;;;;4207358;28;20163;-48
2022/05/27 16:50:57;;;;;;;15.57;2.05;;;19.80;99.90;;;;;;4207179;28;20044;-49
2022/05/27 16:53:03;;;;;;;17.55;2.95;;;19.80;99.90;;;;;;4207171;28;20039;-49
2022/05/27 16:55:06;;;;;;;13.70;2.58;;;20.00;99.90;;;;;;4207187;28;20036;-48
2022/05/27 16:57:14;;;;;;;15.52;2.67;;;20.00;99.90;;;;;;4198097;28;20533;-50
2022/05/27 16:59:17;;;;;;;10.77;3.30;;;20.00;99.90;;;;;;4196161;28;20123;-50
2022/05/27 17:01:20;;;;;;;16.15;2.13;;;20.00;99.90;;;;;;4196044;28;20049;-47
2022/05/27 17:03:22;;;;;;;13.85;2.22;;;20.10;99.90;;;;;;4195744;28;20040;-48
2022/05/27 17:05:27;;;;;;;15.25;2.33;;;20.20;99.90;;;;;;4195851;28;20033;-49
2022/05/27 17:07:32;;;;;;;11.55;1.75;;;20.30;99.90;;;;;;4195360;28;20443;-49
2022/05/27 17:09:34;;;;;;;8.43;2.33;;;20.10;99.90;;;;;;4195358;28;20045;-49
2022/05/27 17:11:36;;;;;;;14.15;2.25;;;20.10;99.90;;;;;;4194747;28;20199;-49
2022/05/27 17:13:58;;;;;;;9.70;2.92;;;20.30;99.90;;;;;;4196224;28;20094;-48
2022/05/27 17:16:19;;;;;;;9.48;2.53;;;20.40;99.90;;;;;;4196181;28;20133;-49
2022/05/27 17:18:40;;;;;;;10.98;2.17;;;20.40;99.90;;;;;;4195878;28;20114;-48
2022/05/27 17:21:01;;;;;;;9.63;2.20;;;20.40;99.90;;;;;;4195965;28;20060;-49
2022/05/27 17:23:22;;;;;;;14.95;2.83;;;20.40;99.90;;;;;;4196113;28;20055;-49
2022/05/27 17:25:43;;;;;;;10.63;2.53;;;20.30;99.90;;;;;;4195762;28;20094;-50
2022/05/27 17:28:06;;;;;;;12.15;3.25;;;20.30;99.90;;;;;;4196254;28;20047;-48
2022/05/27 17:30:27;;;;;;;8.98;2.28;;;20.20;99.90;;;;;;4196265;28;20102;-52
2022/05/27 17:32:47;;;;;;;9.98;2.13;;;20.10;99.90;;;;;;4195698;28;20048;-51
2022/05/27 17:35:13;;;;;;;10.43;2.60;;;19.90;99.90;;;;;;4194863;28;20425;-52
2022/05/27 17:37:35;;;;;;;11.30;2.15;;;20.10;99.90;;;;;;4195159;28;20399;-51
2022/05/27 17:39:56;;;;;;;11.05;2.78;;;20.00;99.90;;;;;;4179518;28;20507;-51
2022/05/27 17:42:17;;;;;;;13.77;1.95;;;19.80;99.90;;;;;;4189748;28;20411;-51
2022/05/27 17:44:37;;;;;;;9.25;1.50;;;19.80;99.90;;;;;;4195699;28;20067;-51
2022/05/27 17:52:17;;;;;;;12.15;1.10;;;19.80;99.90;;;;;;4195347;28;20250;-51
2022/05/27 17:54:39;;;;;;;6.88;1.55;;;19.60;99.90;;;;;;4195499;28;20063;-48
2022/05/27 17:57:00;;;;;;;12.00;2.85;;;19.60;99.90;;;;;;4195207;28;20075;-48
2022/05/27 17:59:21;;;;;;;9.43;1.75;;;19.60;99.90;;;;;;4195294;28;20047;-49
2022/05/27 18:01:41;;;;;;;5.50;1.65;;;19.40;99.90;;;;;;4194932;28;20075;-51
2022/05/27 18:04:02;;;;;;;10.88;1.20;;;19.30;99.90;;;;;;4194800;28;20090;-48
2022/05/27 18:06:24;;;;;;;13.02;1.58;;;19.40;99.90;;;;;;4194790;28;20047;-51
2022/05/27 18:08:46;;;;;;;11.75;2.20;;;19.40;99.90;;;;;;4193194;28;20432;-49
2022/05/27 18:11:06;;;;;;;10.02;1.50;;;18.90;99.90;;;;;;4195191;28;20047;-49
2022/05/27 18:13:28;;;;;;;8.10;1.77;;;18.70;99.90;;;;;;4194743;28;20098;-50
2022/05/27 18:15:49;;;;;;;9.90;3.10;;;18.80;99.90;;;;;;4194841;28;20593;-50
2022/05/27 18:18:11;;;;;;;15.45;3.10;;;18.60;99.90;;;;;;4188804;28;20135;-50
2022/05/27 18:20:33;;;;;;;13.15;2.70;;;18.70;99.90;;;;;;4194743;28;20130;-49
2022/05/27 18:22:54;;;;;;;9.97;2.80;;;18.60;99.90;;;;;;4190998;28;20518;-49
2022/05/27 18:25:15;;;;;;;14.10;3.08;;;18.70;99.90;;;;;;4193814;28;20787;-49
2022/05/27 18:27:36;;;;;;;13.15;3.08;;;18.80;99.90;;;;;;4184258;28;20056;-49
2022/05/27 18:29:58;;;;;;;7.85;2.15;;;18.90;99.90;;;;;;4193495;28;20059;-51
2022/05/27 18:32:21;;;;;;;15.52;2.38;;;19.00;99.90;;;;;;4194559;28;20463;-50
2022/05/27 18:34:42;;;;;;;8.13;3.00;;;19.10;99.90;;;;;;4195111;28;20059;-51
2022/05/27 18:37:02;;;;;;;13.30;2.95;;;19.20;99.90;;;;;;4192103;28;20067;-50
2022/05/27 18:39:23;;;;;;;10.52;2.40;;;19.20;99.90;;;;;;4187443;28;20058;-48
2022/05/27 18:41:43;;;;;;;10.07;2.15;;;19.20;99.90;;;;;;4181786;28;20075;-50
2022/05/27 18:44:04;;;;;;;6.15;2.28;;;19.20;99.90;;;;;;4193001;28;20051;-48
2022/05/27 18:46:26;;;;;;;15.50;4.28;;;19.20;99.90;;;;;;4194047;28;20408;-49
2022/05/27 18:48:51;;;;;;;16.77;2.53;;;19.10;99.90;;;;;;4193087;28;20056;-50
2022/05/27 18:51:14;;;;;;;12.80;3.17;;;19.00;99.90;;;;;;4178530;28;20055;-50
2022/05/27 18:53:36;;;;;;;14.80;3.08;;;18.90;99.90;;;;;;4194610;28;20055;-50
2022/05/27 18:55:56;;;;;;;8.90;3.00;;;18.80;99.90;;;;;;4194383;28;20051;-49
2022/05/27 18:58:17;;;;;;;12.63;2.22;;;18.90;99.90;;;;;;4194304;28;20239;-50
2022/05/27 19:00:39;;;;;;;10.60;2.05;;;18.80;99.90;;;;;;4194298;28;20067;-48
2022/05/27 19:02:59;;;;;;;10.50;3.17;;;18.80;99.90;;;;;;4193926;28;20534;-50
2022/05/27 19:05:20;;;;;;;14.27;3.42;;;18.80;99.90;;;;;;4206812;28;20054;-48
2022/05/27 19:07:42;;;;;;;7.47;2.53;;;18.80;99.90;;;;;;4190275;28;20055;-49
2022/05/27 19:10:04;;;;;;;13.02;2.67;;;18.80;99.90;;;;;;4185992;28;20466;-49
2022/05/27 19:12:24;;;;;;;13.02;3.47;;;18.80;99.90;;;;;;4191868;28;20044;-49
2022/05/27 19:14:47;;;;;;;14.15;2.53;;;18.80;99.90;;;;;;4191871;28;20098;-50
2022/05/27 19:17:09;;;;;;;12.32;2.88;;;18.90;99.90;;;;;;4191961;28;20059;-49
2022/05/27 19:22:12;;;;;;;14.63;2.50;;;18.70;99.90;;;;;;4177194;28;20050;-48
2022/05/27 19:24:34;;;;;;;9.65;2.53;;;18.60;99.90;;;;;;4190710;28;20052;-48
2022/05/27 19:26:54;;;;;;;16.43;3.27;;;18.60;99.90;;;;;;4193897;28;20047;-50
2022/05/27 19:29:15;;;;;;;8.82;1.48;;;18.50;99.90;;;;;;4193548;28;20060;-47
2022/05/27 19:31:35;;;;;;;8.95;2.38;;;18.50;99.90;;;;;;4186180;28;20083;-50
2022/05/27 19:33:56;;;;;;;11.32;2.13;;;18.40;99.90;;;;;;4193628;28;20063;-50
2022/05/27 19:36:19;;;;;;;6.93;2.72;;;18.40;99.90;;;;;;4180754;28;20147;-49
2022/05/27 19:38:40;;;;;;;10.85;3.35;;;18.30;99.90;;;;;;4177134;28;20098;-49
2022/05/27 19:41:01;;;;;;;11.38;2.78;;;18.20;99.90;;;;;;4177285;28;20175;-51
2022/05/27 19:43:22;;;;;;;10.45;2.10;;;18.10;99.90;;;;;;4187824;28;20534;-48
2022/05/27 19:45:44;;;;;;;6.95;2.30;;;18.00;99.90;;;;;;4165625;28;20052;-50
2022/05/27 19:48:11;;;;;;;4.70;3.05;;;17.90;99.90;;;;;;4193653;28;20055;-49
2022/05/27 19:50:32;;;;;;;10.10;2.50;;;17.90;99.90;;;;;;4188226;28;20055;-48
2022/05/27 19:52:53;;;;;;;9.50;3.38;;;17.90;99.90;;;;;;4193322;28;20476;-48
2022/05/27 19:55:14;;;;;;;12.07;2.83;;;18.00;99.90;;;;;;4193124;28;20043;-48
2022/05/27 20:00:15;;;;;;;10.35;3.97;;;18.10;99.90;;;;;;4176977;28;20083;-49
2022/05/27 20:05:15;;;;;;;6.32;2.70;;;18.10;99.90;;;;;;4187648;28;20554;-49
2022/05/27 20:07:39;;;;;;;8.20;1.85;;;18.20;99.90;;;;;;4180564;28;20052;-51
2022/05/27 20:10:03;;;;;;;9.30;2.95;;;18.20;99.90;;;;;;4188556;28;20526;-51
2022/05/27 20:12:28;;;;;;;7.10;1.75;;;18.20;99.90;;;;;;4185307;28;20056;-50
2022/05/27 20:14:49;;;;;;;14.02;3.30;;;18.20;99.90;;;;;;4182994;28;20079;-50
2022/05/27 20:17:10;;;;;;;12.77;3.78;;;18.10;99.90;;;;;;4192651;28;20577;-50
2022/05/27 20:19:31;;;;;;;5.60;2.47;;;18.10;99.90;;;;;;4187818;28;20094;-49
2022/05/27 20:21:52;;;;;;;10.00;3.33;;;18.10;99.90;;;;;;4192748;28;20063;-50
2022/05/27 20:24:14;;;;;;;7.93;2.25;;;18.00;99.90;;;;;;4192320;28;20102;-49
2022/05/27 20:26:36;;;;;;;8.55;2.08;;;18.00;99.90;;;;;;4187548;28;20043;-49
2022/05/27 20:28:58;;;;;;;16.17;3.72;;;18.10;99.90;;;;;;4181104;28;20098;-50
2022/05/27 20:31:19;;;;;;;9.67;2.50;;;18.00;99.90;;;;;;4192364;28;20474;-51
2022/05/27 20:33:40;;;;;;;4.32;1.75;;;18.00;99.90;;;;;;4194301;28;20443;-48
2022/05/27 20:38:43;;;;;;;15.52;4.65;;;17.70;99.90;;;;;;4184429;28;20094;-48
2022/05/27 20:41:03;;;;;;;6.18;2.53;;;17.50;99.90;;;;;;4192766;28;20063;-49
2022/05/27 20:43:24;;;;;;;10.95;3.75;;;17.60;99.90;;;;;;4196493;28;20063;-50
2022/05/27 20:45:45;;;;;;;16.63;4.53;;;17.70;99.90;;;;;;4196230;28;20063;-49
2022/05/27 20:48:06;;;;;;;14.55;3.58;;;17.60;99.90;;;;;;4179987;28;20052;-49
2022/05/27 20:50:28;;;;;;;8.48;3.10;;;17.50;99.90;;;;;;4187384;28;20102;-48
2022/05/27 20:52:49;;;;;;;9.20;3.70;;;17.60;99.90;;;;;;4200531;28;20463;-49
2022/05/27 20:55:10;;;;;;;14.57;4.07;;;17.60;99.90;;;;;;4213041;28;20051;-48
2022/05/27 20:57:30;;;;;;;15.07;3.90;;;17.50;99.90;;;;;;4179635;28;20052;-51
2022/05/27 20:59:51;;;;;;;11.73;4.53;;;17.30;99.90;;;;;;4189412;28;20059;-48
2022/05/27 21:02:12;;;;;;;6.10;3.80;;;17.30;99.90;;;;;;4195968;28;20051;-48
2022/05/27 21:04:38;;;;;;;8.23;3.28;;;17.20;99.90;;;;;;4196220;28;20083;-49
2022/05/27 21:06:59;;;;;;;6.72;3.97;;;17.20;99.90;;;;;;4195557;28;20046;-51
2022/05/27 21:09:19;;;;;;;6.15;3.50;;;17.30;99.90;;;;;;4195516;28;20135;-51
2022/05/27 21:11:43;;;;;;;8.88;3.67;;;17.30;99.90;;;;;;4195876;28;20051;-48
2022/05/27 21:14:06;;;;;;;8.98;3.05;;;17.40;99.90;;;;;;4195756;28;20060;-48
2022/05/27 21:16:28;;;;;;;8.17;3.27;;;17.40;99.90;;;;;;4195600;28;20566;-51
2022/05/27 21:18:50;;;;;;;9.23;2.95;;;17.30;99.90;;;;;;4195683;28;20055;-49
2022/05/27 21:21:13;;;;;;;11.85;2.60;;;17.40;99.90;;;;;;4196482;28;20060;-52
2022/05/27 21:23:34;;;;;;;9.18;2.33;;;17.30;99.90;;;;;;4211325;28;20134;-48
2022/05/27 21:25:55;;;;;;;7.18;2.58;;;17.30;99.90;;;;;;4197332;28;20047;-52
2022/05/27 21:28:16;;;;;;;12.40;3.35;;;17.20;99.90;;;;;;4195694;28;20051;-51
2022/05/27 21:30:37;;;;;;;11.05;2.53;;;17.10;99.90;;;;;;4195715;28;20055;-51
2022/05/27 21:32:58;;;;;;;7.88;2.60;;;17.00;99.90;;;;;;4195262;28;20106;-51
2022/05/27 21:35:19;;;;;;;8.27;2.47;;;17.00;99.90;;;;;;4195490;28;20145;-51
2022/05/27 21:37:39;;;;;;;3.55;2.28;;;16.90;99.90;;;;;;4195297;28;20060;-50
2022/05/27 21:40:00;;;;;;;8.20;2.80;;;16.90;99.90;;;;;;4195640;28;20059;-50
2022/05/27 21:42:21;;;;;;;5.25;2.15;;;16.90;99.90;;;;;;4178920;28;20060;-49
2022/05/27 21:44:42;;;;;;;8.05;3.03;;;16.90;99.90;;;;;;4194320;28;20105;-51
2022/05/27 21:47:04;;;;;;;3.20;2.42;;;16.90;99.90;;;;;;4195852;28;20056;-50
2022/05/27 21:49:25;;;;;;;8.70;2.88;;;16.70;99.90;;;;;;4195432;28;20055;-51
2022/05/27 21:51:46;;;;;;;11.38;3.42;;;16.70;99.90;;;;;;4178812;28;20099;-51
2022/05/27 21:54:07;;;;;;;12.50;3.47;;;16.60;99.90;;;;;;4189278;28;20047;-51
2022/05/27 21:56:29;;;;;;;8.00;2.72;;;16.60;99.90;;;;;;4193668;28;20486;-50
2022/05/27 21:58:50;;;;;;;9.13;2.88;;;16.50;99.90;;;;;;4195424;28;20055;-48
2022/05/27 22:01:14;;;;;;;14.40;3.42;;;16.50;99.90;;;;;;4195264;28;20403;-51
2022/05/27 22:03:35;;;;;;;10.90;3.30;;;16.50;99.90;;;;;;4195312;28;20055;-48
2022/05/27 22:05:56;;;;;;;12.85;3.08;;;16.60;99.90;;;;;;4194895;28;20059;-52
2022/05/27 22:08:17;;;;;;;11.73;3.50;;;16.60;99.90;;;;;;4194963;28;20488;-52
2022/05/27 22:13:17;;;;;;;17.67;4.93;;;16.60;99.90;;;;;;4189296;28;20471;-51
2022/05/27 22:15:38;;;;;;;11.00;5.18;;;16.60;99.90;;;;;;4194731;28;20498;-52
2022/05/27 22:17:59;;;;;;;11.93;4.45;;;16.50;99.90;;;;;;4185378;28;20106;-51
2022/05/27 22:20:19;;;;;;;6.10;3.33;;;16.60;99.90;;;;;;4194249;28;20097;-51
2022/05/27 22:22:40;;;;;;;12.18;4.05;;;16.70;99.90;;;;;;4195024;28;20155;-48
2022/05/27 22:25:06;;;;;;;7.78;4.97;;;16.70;99.90;;;;;;4195048;28;20060;-49
2022/05/27 22:27:28;;;;;;;13.55;4.22;;;16.80;99.90;;;;;;4194541;28;20514;-49
2022/05/27 22:29:49;;;;;;;13.40;4.27;;;16.70;99.90;;;;;;4194534;28;20106;-50
2022/05/27 22:32:10;;;;;;;8.05;3.85;;;16.70;99.90;;;;;;4194440;28;20098;-51
2022/05/27 22:34:32;;;;;;;12.02;4.50;;;16.70;99.90;;;;;;4194400;28;20098;-49
2022/05/27 22:36:53;;;;;;;7.37;3.73;;;16.70;99.90;;;;;;4194736;28;20460;-51
2022/05/27 22:39:14;;;;;;;14.52;4.10;;;16.70;99.90;;;;;;4194609;28;20055;-50
2022/05/27 22:41:35;;;;;;;17.65;5.57;;;16.70;99.90;;;;;;4194347;28;20577;-48
2022/05/27 22:43:56;;;;;;;8.77;3.80;;;16.70;99.90;;;;;;4194441;28;20055;-52
2022/05/27 22:46:16;;;;;;;4.13;3.38;;;16.70;99.90;;;;;;4194104;28;20396;-50
2022/05/27 22:48:38;;;;;;;5.97;3.70;;;16.70;99.90;;;;;;4194334;28;20504;-49
2022/05/27 22:50:58;;;;;;;14.82;5.20;;;16.80;99.90;;;;;;4185154;28;20090;-51
2022/05/27 22:53:20;;;;;;;7.13;3.78;;;16.80;99.90;;;;;;4192995;28;20113;-51
2022/05/27 22:55:41;;;;;;;15.73;3.72;;;16.70;99.90;;;;;;4177327;28;20052;-51
2022/05/27 22:58:02;;;;;;;12.98;3.67;;;16.70;99.90;;;;;;4189004;28;20055;-50
2022/05/27 23:00:23;;;;;;;10.27;4.30;;;16.70;99.90;;;;;;4194059;28;20079;-49
2022/05/27 23:02:43;;;;;;;8.65;3.88;;;16.70;99.90;;;;;;4194102;28;20055;-51
2022/05/27 23:05:06;;;;;;;6.80;3.28;;;16.70;99.90;;;;;;4180944;28;20059;-51
2022/05/27 23:07:27;;;;;;;6.93;2.92;;;16.60;99.90;;;;;;4194065;28;20094;-52
2022/05/27 23:09:48;;;;;;;6.40;3.50;;;16.60;99.90;;;;;;4193872;28;20048;-51
2022/05/27 23:12:10;;;;;;;7.60;3.67;;;16.60;99.90;;;;;;4194180;28;20098;-51
2022/05/27 23:19:49;;;;;;;14.80;3.70;;;16.50;99.90;;;;;;4194477;28;20051;-52
2022/05/27 23:22:12;;;;;;;10.07;4.10;;;16.50;99.90;;;;;;4193919;28;20147;-50
2022/05/27 23:24:33;;;;;;;10.13;4.03;;;16.40;99.90;;;;;;4178010;28;20564;-51
2022/05/27 23:26:55;;;;;;;11.40;3.88;;;16.40;99.90;;;;;;4189584;28;20051;-52
2022/05/27 23:29:16;;;;;;;5.77;3.20;;;16.30;99.90;;;;;;4192131;28;20558;-52
2022/05/27 23:31:39;;;;;;;7.55;2.97;;;16.40;99.90;;;;;;4193773;28;20293;-53
2022/05/27 23:34:00;;;;;;;3.50;2.35;;;16.40;99.90;;;;;;4177101;28;20091;-48
2022/05/27 23:36:21;;;;;;;3.83;2.47;;;16.50;99.90;;;;;;4188910;28;20615;-52
2022/05/27 23:38:42;;;;;;;9.63;3.72;;;16.50;99.90;;;;;;4193936;28;20127;-51
2022/05/27 23:41:05;;;;;;;8.38;2.97;;;16.50;99.90;;;;;;4193843;28;20563;-51
2022/05/27 23:43:27;;;;;;;7.00;3.10;;;16.40;99.90;;;;;;4182403;28;20733;-52
2022/05/27 23:45:48;;;;;;;3.40;2.78;;;16.40;99.90;;;;;;4193445;28;20562;-52
2022/05/27 23:48:17;;;;;;;8.18;2.30;;;16.40;99.90;;;;;;4193283;28;20044;-51
2022/05/27 23:50:38;;;;;;;5.70;2.33;;;16.40;99.90;;;;;;4194028;28;20562;-53
2022/05/27 23:52:58;;;;;;;3.15;2.65;;;16.50;99.90;;;;;;4177479;28;20091;-49
2022/05/27 23:55:19;;;;;;;12.50;2.22;;;16.50;99.90;;;;;;4187623;28;20489;-51
2022/05/27 23:57:40;;;;;;;7.05;2.00;;;16.50;99.90;;;;;;4193343;28;20044;-51
